Time;durP1;ratioP1;P1;durP2;ratioP2;P2;SDS_P1;SDS_P2;PMS_P1;PMS_P2;Temp;Humidity;BMP_temperature;BMP_pressure;BME280_temperature;BME280_humidity;BME280_pressure;Samples;Min_cycle;Max_cycle;Signal;HPM_P1;HPM_P2
2023/09/23 00:05:32;;;;;;;5.40;3.00;;;;;;;21.23;84.69;98230.42;273574;1269;22440;-88
2023/09/23 00:11:37;;;;;;;6.30;2.80;;;;;;;21.06;85.16;98230.50;271965;1269;23413;-87
2023/09/23 00:17:41;;;;;;;6.50;3.00;;;;;;;20.81;86.39;98240.63;270038;1269;24244;-86
2023/09/23 00:23:45;;;;;;;6.40;2.60;;;;;;;20.58;87.53;98245.17;270397;1269;25404;-87
2023/09/23 00:29:49;;;;;;;8.60;3.40;;;;;;;20.29;88.66;98232.35;270544;1269;23315;-85
2023/09/23 00:36:08;;;;;;;7.80;3.10;;;;;;;20.09;90.34;98230.11;271038;1269;22654;-85
2023/09/23 00:50:36;;;;;;;8.80;2.90;;;;;;;19.83;92.86;98217.54;273829;1273;22945;-85
2023/09/23 00:58:00;;;;;;;6.30;3.10;;;;;;;19.60;93.67;98205.50;273776;1269;22949;-85
2023/09/23 01:04:16;;;;;;;8.30;2.90;;;;;;;19.33;94.55;98197.05;272381;1269;24669;-85
2023/09/23 01:10:38;;;;;;;7.10;3.00;;;;;;;19.21;95.07;98203.44;272656;1269;23095;-86
2023/09/23 01:16:41;;;;;;;5.90;2.80;;;;;;;19.13;96.16;98201.73;269723;1263;22545;-86
2023/09/23 01:22:50;;;;;;;7.40;3.30;;;;;;;19.04;96.92;98203.39;271302;1269;23366;-85
2023/09/23 01:28:54;;;;;;;8.70;4.00;;;;;;;18.90;96.90;98209.42;269997;1269;23622;-84
2023/09/23 01:34:55;;;;;;;10.30;3.50;;;;;;;18.83;98.20;98201.92;269839;1269;22520;-86
2023/09/23 01:41:18;;;;;;;8.00;4.30;;;;;;;18.76;98.15;98199.63;269658;1269;23706;-85
2023/09/23 01:47:21;;;;;;;11.80;4.80;;;;;;;18.57;98.05;98214.90;270139;1269;22541;-85
2023/09/23 01:53:40;;;;;;;7.40;3.70;;;;;;;18.49;99.16;98215.01;270893;1269;22189;-86
2023/09/23 02:00:07;;;;;;;7.40;3.70;;;;;;;18.50;100.00;98227.80;273543;1269;22505;-86
2023/09/23 02:07:30;;;;;;;4.80;3.50;;;;;;;18.47;100.00;98250.94;270265;1269;23747;-86
2023/09/23 02:13:47;;;;;;;;;;;;;;;18.44;100.00;98263.88;272841;1269;22591;-85
2023/09/23 02:20:32;;;;;;;15.90;6.90;;;;;;;18.44;100.00;98271.00;272222;1269;22550;-85
2023/09/23 02:26:34;;;;;;;15.70;8.90;;;;;;;18.47;100.00;98286.66;272635;1269;22830;-85
2023/09/23 02:33:20;;;;;;;14.40;9.80;;;;;;;18.46;100.00;98294.94;273124;1269;22947;-83
2023/09/23 02:48:13;;;;;;;19.50;14.50;;;;;;;18.47;100.00;98298.63;272555;1267;23703;-85
2023/09/23 02:54:55;;;;;;;18.00;14.10;;;;;;;18.43;100.00;98318.15;271897;1269;22225;-85
2023/09/23 03:01:18;;;;;;;17.90;13.80;;;;;;;18.39;100.00;98331.39;273608;1262;22139;-86
2023/09/23 03:07:48;;;;;;;16.40;11.50;;;;;;;18.25;100.00;98317.23;273515;1270;23537;-83
2023/09/23 03:14:45;;;;;;;16.40;11.10;;;;;;;18.15;100.00;98337.96;273474;1271;22184;-84
2023/09/23 03:21:08;;;;;;;21.80;13.20;;;;;;;18.04;100.00;98365.75;273800;1276;22182;-85
2023/09/23 03:27:14;;;;;;;19.30;11.90;;;;;;;17.94;100.00;98357.97;273160;1272;22536;-84
2023/09/23 03:33:18;;;;;;;18.30;13.70;;;;;;;17.86;100.00;98365.08;270000;1270;22634;-86
2023/09/23 03:39:40;;;;;;;19.80;13.30;;;;;;;17.77;100.00;98367.61;270235;1271;22430;-85
2023/09/23 03:45:51;;;;;;;19.90;13.70;;;;;;;17.66;100.00;98392.52;273557;1269;22961;-86
2023/09/23 03:52:13;;;;;;;18.40;13.90;;;;;;;17.56;100.00;98406.56;273674;1269;22202;-86
2023/09/23 03:58:17;;;;;;;28.90;19.90;;;;;;;17.44;100.00;98392.46;271993;1269;23817;-86
2023/09/23 04:04:19;;;;;;;26.30;17.70;;;;;;;17.37;100.00;98380.95;270838;1269;22186;-87
2023/09/23 04:10:41;;;;;;;23.00;14.30;;;;;;;17.36;100.00;98408.48;272642;1269;22374;-86
2023/09/23 04:16:42;;;;;;;18.50;12.50;;;;;;;17.31;100.00;98428.42;273895;1269;22191;-85
2023/09/23 04:22:46;;;;;;;18.20;11.70;;;;;;;17.27;100.00;98420.08;271210;1269;22242;-86
2023/09/23 04:28:55;;;;;;;20.80;15.00;;;;;;;17.20;100.00;98407.52;274206;1276;22190;-86
2023/09/23 04:35:37;;;;;;;20.20;14.10;;;;;;;17.10;100.00;98403.33;272193;1276;23153;-86
2023/09/23 04:41:40;;;;;;;15.90;12.70;;;;;;;17.04;100.00;98404.13;272011;1269;22559;-85
2023/09/23 04:47:45;;;;;;;18.80;12.00;;;;;;;17.02;100.00;98415.39;270127;1269;22505;-85
2023/09/23 04:53:47;;;;;;;18.50;11.80;;;;;;;17.00;100.00;98430.65;270292;1269;22852;-86
2023/09/23 05:00:17;;;;;;;14.80;11.30;;;;;;;16.95;100.00;98433.70;270660;1269;22524;-85
2023/09/23 05:06:19;;;;;;;18.70;15.30;;;;;;;16.92;100.00;98427.86;270431;1269;23118;-86
2023/09/23 05:12:21;;;;;;;18.20;12.20;;;;;;;16.83;100.00;98421.59;269898;1259;22638;-86
2023/09/23 05:18:46;;;;;;;18.10;13.40;;;;;;;16.77;100.00;98437.04;272476;1269;22293;-87
2023/09/23 05:24:56;;;;;;;21.20;12.60;;;;;;;16.79;100.00;98464.80;270167;1263;22562;-87
2023/09/23 05:31:42;;;;;;;23.70;15.30;;;;;;;16.77;100.00;98463.83;270378;1269;22997;-86
2023/09/23 05:37:51;;;;;;;24.80;15.40;;;;;;;16.69;100.00;98455.95;270026;1262;23687;-86
2023/09/23 05:44:18;;;;;;;27.70;17.30;;;;;;;16.67;100.00;98470.36;270180;1269;23579;-86
2023/09/23 05:51:01;;;;;;;31.50;18.40;;;;;;;16.61;100.00;98489.90;274025;1269;22178;-86
2023/09/23 05:57:43;;;;;;;22.20;15.60;;;;;;;16.55;100.00;98503.70;272942;1269;22624;-85
2023/09/23 06:03:50;;;;;;;18.70;12.30;;;;;;;16.52;100.00;98507.23;273846;1269;22206;-85
2023/09/23 06:09:51;;;;;;;16.70;12.10;;;;;;;16.52;100.00;98512.59;273086;1269;23174;-86
2023/09/23 06:16:36;;;;;;;18.70;13.10;;;;;;;16.53;100.00;98519.91;273812;1270;22187;-86
2023/09/23 06:23:01;;;;;;;19.30;13.90;;;;;;;16.55;100.00;98521.61;272053;1269;25357;-86
2023/09/23 06:29:54;;;;;;;15.00;10.80;;;;;;;16.54;100.00;98524.78;273657;1269;22196;-87
2023/09/23 06:36:03;;;;;;;16.80;11.70;;;;;;;16.53;100.00;98551.72;273947;1269;22231;-86
2023/09/23 06:42:04;;;;;;;16.20;10.80;;;;;;;16.52;100.00;98570.39;273152;1263;22323;-85
2023/09/23 06:48:10;;;;;;;16.10;12.10;;;;;;;16.49;100.00;98585.20;273571;1271;22360;-86
2023/09/23 06:54:29;;;;;;;16.60;11.60;;;;;;;16.49;100.00;98593.27;273727;1273;22177;-85
2023/09/23 07:08:54;;;;;;;20.40;13.90;;;;;;;16.50;100.00;98623.62;272647;1272;22472;-87
2023/09/23 07:14:58;;;;;;;21.00;13.50;;;;;;;16.48;100.00;98633.85;271810;1270;22803;-87
2023/09/23 07:21:47;;;;;;;20.20;13.00;;;;;;;16.48;100.00;98637.08;272175;1266;22140;-86
2023/09/23 07:28:32;;;;;;;29.70;18.70;;;;;;;16.52;100.00;98652.33;273632;1272;22916;-88
2023/09/23 07:35:29;;;;;;;19.40;13.60;;;;;;;16.56;100.00;98653.61;273329;1270;22183;-87
2023/09/23 07:41:32;;;;;;;19.50;11.90;;;;;;;16.53;100.00;98652.30;273358;1272;22179;-85
2023/09/23 07:47:53;;;;;;;14.80;9.50;;;;;;;16.51;100.00;98650.77;273867;1269;22205;-84
2023/09/23 07:54:15;;;;;;;6.60;4.90;;;;;;;16.52;100.00;98641.91;273814;1269;22379;-84
2023/09/23 08:00:21;;;;;;;7.80;5.10;;;;;;;16.51;100.00;98640.25;272838;1254;22194;-85
2023/09/23 08:06:50;;;;;;;4.70;3.80;;;;;;;16.51;100.00;98635.77;273795;1269;22211;-87
2023/09/23 08:13:37;;;;;;;4.10;3.20;;;;;;;16.55;100.00;98648.48;271922;1269;22286;-86
2023/09/23 08:19:59;;;;;;;3.90;3.50;;;;;;;16.56;100.00;98652.34;271483;1269;22325;-83
2023/09/23 08:26:01;;;;;;;4.90;3.40;;;;;;;16.54;100.00;98667.70;273787;1269;22221;-82
2023/09/23 08:32:45;;;;;;;5.00;4.00;;;;;;;16.47;100.00;98668.77;273715;1269;22277;-83
2023/09/23 08:39:09;;;;;;;7.70;5.20;;;;;;;16.40;100.00;98676.19;273856;1276;22202;-82
2023/09/23 08:45:11;;;;;;;7.00;5.60;;;;;;;16.32;100.00;98674.76;273393;1269;23376;-83
2023/09/23 08:51:14;;;;;;;6.40;4.60;;;;;;;16.33;100.00;98693.99;273477;1269;22183;-83
2023/09/23 08:57:38;;;;;;;7.00;4.90;;;;;;;16.33;100.00;98717.36;273841;1276;22200;-83
2023/09/23 09:04:00;;;;;;;10.10;4.90;;;;;;;16.34;100.00;98729.34;273788;1276;22435;-83
2023/09/23 09:10:49;;;;;;;9.50;3.80;;;;;;;16.31;100.00;98728.20;273607;1270;22189;-84
2023/09/23 09:16:52;;;;;;;5.60;3.90;;;;;;;16.24;100.00;98726.71;273787;1276;22185;-83
2023/09/23 09:23:15;;;;;;;7.00;5.40;;;;;;;16.23;100.00;98727.37;273801;1270;22250;-84
2023/09/23 09:29:18;;;;;;;6.60;4.70;;;;;;;16.22;100.00;98724.48;273560;1270;22200;-83
2023/09/23 09:35:38;;;;;;;9.90;5.40;;;;;;;16.20;100.00;98730.82;273755;1276;22219;-84
2023/09/23 09:41:51;;;;;;;8.90;6.00;;;;;;;16.19;100.00;98736.59;273691;1275;22172;-84
2023/09/23 09:48:38;;;;;;;9.40;6.80;;;;;;;16.21;100.00;98742.02;273697;1273;22180;-83
2023/09/23 09:55:56;;;;;;;10.40;6.60;;;;;;;16.24;100.00;98742.82;273633;1276;22655;-83
2023/09/23 10:02:48;;;;;;;7.40;5.90;;;;;;;16.34;100.00;98741.80;273725;1272;22187;-83
2023/09/23 10:09:14;;;;;;;6.70;4.70;;;;;;;16.49;100.00;98743.16;273523;1269;22255;-83
2023/09/23 10:15:40;;;;;;;6.40;5.30;;;;;;;16.61;100.00;98751.42;273776;1276;22261;-83
2023/09/23 10:22:27;;;;;;;7.20;4.40;;;;;;;16.66;100.00;98751.48;273723;1269;22185;-82
2023/09/23 10:29:50;;;;;;;6.90;4.70;;;;;;;16.77;100.00;98743.14;272428;1270;22367;-83
2023/09/23 10:36:19;;;;;;;5.50;4.10;;;;;;;16.85;100.00;98731.78;273633;1270;22934;-83
2023/09/23 10:50:29;;;;;;;3.00;2.60;;;;;;;16.81;100.00;98728.70;271668;1270;22536;-85
2023/09/23 10:56:58;;;;;;;4.50;3.40;;;;;;;16.85;100.00;98729.89;272797;1270;22338;-85
2023/09/23 11:03:25;;;;;;;8.80;2.80;;;;;;;16.92;100.00;98736.39;273471;1276;22267;-86
2023/09/23 11:09:31;;;;;;;2.70;1.70;;;;;;;16.90;100.00;98720.64;272752;1270;22308;-85
2023/09/23 11:16:13;;;;;;;3.80;1.60;;;;;;;16.87;100.00;98716.42;273450;1275;22185;-84
2023/09/23 11:22:45;;;;;;;4.20;2.30;;;;;;;16.90;100.00;98726.64;273570;1276;23031;-85
2023/09/23 11:29:28;;;;;;;2.40;1.90;;;;;;;16.79;100.00;98691.06;273564;1277;22186;-85
2023/09/23 11:35:30;;;;;;;3.60;1.80;;;;;;;16.77;100.00;98681.64;273326;1270;23420;-85
2023/09/23 11:42:14;;;;;;;1.60;1.40;;;;;;;16.91;100.00;98683.98;273510;1270;22155;-82
2023/09/23 11:48:23;;;;;;;2.70;1.50;;;;;;;16.96;100.00;98706.14;272371;1269;23546;-85
2023/09/23 11:54:25;;;;;;;2.10;1.10;;;;;;;16.90;100.00;98710.59;271097;1269;25303;-85
2023/09/23 12:00:28;;;;;;;2.90;1.70;;;;;;;16.87;100.00;98723.78;267223;1266;5548162;-84
2023/09/23 12:07:06;;;;;;;1.50;0.90;;;;;;;16.77;100.00;98724.27;272391;1273;22182;-84
2023/09/23 12:13:08;;;;;;;2.90;1.20;;;;;;;16.62;100.00;98724.70;273529;1269;22208;-84
2023/09/23 12:19:15;;;;;;;1.40;0.90;;;;;;;16.51;100.00;98714.23;272305;1269;22448;-84
2023/09/23 12:25:59;;;;;;;1.20;1.00;;;;;;;16.44;100.00;98724.29;273672;1269;22348;-84
2023/09/23 12:32:00;;;;;;;1.40;1.00;;;;;;;16.42;100.00;98733.30;272949;1268;22458;-85
2023/09/23 12:38:02;;;;;;;2.90;1.20;;;;;;;16.40;100.00;98744.92;273006;1263;22812;-86
2023/09/23 12:44:05;;;;;;;2.70;1.70;;;;;;;16.35;100.00;98761.35;273006;1269;23738;-84
2023/09/23 12:50:15;;;;;;;7.70;3.10;;;;;;;16.30;100.00;98777.86;272997;1269;22422;-83
2023/09/23 12:56:18;;;;;;;6.10;3.70;;;;;;;16.22;100.00;98796.44;273154;1269;22405;-84
2023/09/23 13:02:40;;;;;;;7.10;5.60;;;;;;;16.17;100.00;98804.40;273124;1266;22371;-83
2023/09/23 13:09:05;;;;;;;6.90;5.70;;;;;;;16.09;100.00;98801.35;273197;1269;23671;-85
2023/09/23 13:15:50;;;;;;;10.30;6.50;;;;;;;16.10;100.00;98818.63;273300;1269;23630;-85
2023/09/23 13:23:08;;;;;;;11.10;6.40;;;;;;;16.09;100.00;98818.48;272998;1269;23239;-85
2023/09/23 13:29:38;;;;;;;8.30;6.40;;;;;;;16.13;100.00;98843.66;272925;1263;22412;-85
2023/09/23 13:36:22;;;;;;;8.30;5.10;;;;;;;16.15;100.00;98845.06;273249;1262;23526;-83
2023/09/23 13:42:44;;;;;;;7.60;5.40;;;;;;;16.15;100.00;98840.41;273178;1269;22276;-85
2023/09/23 13:48:50;;;;;;;9.70;5.30;;;;;;;16.17;100.00;98840.61;273382;1269;22407;-84
2023/09/23 13:55:19;;;;;;;7.90;4.90;;;;;;;16.21;100.00;98854.13;273258;1268;22585;-85
2023/09/23 14:02:04;;;;;;;6.70;4.60;;;;;;;16.28;100.00;98857.83;273228;1269;22394;-86
2023/09/23 14:08:51;;;;;;;5.50;3.60;;;;;;;16.34;100.00;98861.05;273242;1269;22434;-85
2023/09/23 14:15:19;;;;;;;5.30;3.60;;;;;;;16.28;100.00;98868.15;273306;1269;22444;-85
2023/09/23 14:21:44;;;;;;;6.00;3.50;;;;;;;16.24;100.00;98898.27;273065;1269;22382;-86
2023/09/23 14:27:46;;;;;;;6.00;2.80;;;;;;;16.24;100.00;98916.36;273347;1269;22278;-85
2023/09/23 14:33:51;;;;;;;4.60;2.50;;;;;;;16.20;100.00;98934.31;273386;1265;22479;-85
2023/09/23 14:40:33;;;;;;;3.30;2.40;;;;;;;16.16;100.00;98938.23;273289;1269;22420;-84
2023/09/23 14:47:15;;;;;;;2.20;2.00;;;;;;;16.02;100.00;98943.05;273180;1263;22415;-85
2023/09/23 14:53:41;;;;;;;4.70;2.20;;;;;;;15.86;100.00;98942.27;273429;1269;22464;-84
2023/09/23 15:00:29;;;;;;;2.80;1.80;;;;;;;15.79;100.00;98944.88;273362;1269;22289;-85
2023/09/23 15:06:52;;;;;;;;;;;;;;;15.74;100.00;98955.50;273369;1268;22432;-84
2023/09/23 15:12:59;;;;;;;5.30;2.20;;;;;;;15.70;100.00;98966.35;273132;1262;23225;-85
2023/09/23 15:19:25;;;;;;;5.40;1.90;;;;;;;15.59;100.00;98983.40;273336;1269;22419;-85
2023/09/23 15:26:17;;;;;;;5.00;1.70;;;;;;;15.54;100.00;99009.54;273427;1269;23479;-84
2023/09/23 15:33:55;;;;;;;3.00;2.10;;;;;;;15.54;100.00;99020.02;273412;1269;22370;-84
2023/09/23 15:40:22;;;;;;;7.70;2.30;;;;;;;15.54;100.00;99026.41;273393;1266;23156;-85
2023/09/23 15:47:14;;;;;;;3.20;2.40;;;;;;;15.52;100.00;99026.58;273287;1269;22297;-85
2023/09/23 15:53:38;;;;;;;5.40;2.90;;;;;;;15.47;100.00;99032.84;273247;1269;22289;-84
2023/09/23 16:00:09;;;;;;;4.10;2.70;;;;;;;15.45;100.00;99027.11;272990;1269;22395;-84
2023/09/23 16:06:36;;;;;;;4.10;2.90;;;;;;;15.43;100.00;99041.31;273279;1269;22373;-84
2023/09/23 16:13:03;;;;;;;7.20;4.10;;;;;;;15.42;100.00;99050.79;273379;1269;22507;-85
2023/09/23 16:19:27;;;;;;;5.00;3.80;;;;;;;15.42;100.00;99052.67;273479;1269;23637;-84
2023/09/23 16:26:14;;;;;;;6.50;3.90;;;;;;;15.39;100.00;99056.30;273303;1262;22504;-86
2023/09/23 16:32:38;;;;;;;5.60;4.00;;;;;;;15.36;100.00;99067.50;272260;1275;22422;-85
2023/09/23 16:38:45;;;;;;;8.10;4.20;;;;;;;15.33;100.00;99074.54;272093;1269;22438;-86
2023/09/23 16:44:50;;;;;;;6.40;3.60;;;;;;;15.28;100.00;99072.05;273409;1269;22504;-84
2023/09/23 16:50:55;;;;;;;6.30;3.90;;;;;;;15.24;100.00;99079.23;273266;1269;22419;-85
2023/09/23 16:57:20;;;;;;;7.70;3.90;;;;;;;15.19;100.00;99083.68;273357;1266;22374;-84
2023/09/23 17:03:38;;;;;;;7.50;3.80;;;;;;;15.15;100.00;99096.62;273356;1269;22403;-85
2023/09/23 17:09:41;;;;;;;8.40;4.50;;;;;;;15.15;100.00;99106.00;273236;1269;22406;-84
2023/09/23 17:15:45;;;;;;;7.50;4.60;;;;;;;15.14;100.00;99108.20;273148;1262;23867;-84
2023/09/23 17:21:48;;;;;;;8.00;4.80;;;;;;;15.13;100.00;99111.13;273090;1265;22411;-84
2023/09/23 17:28:11;;;;;;;7.50;4.40;;;;;;;15.11;100.00;99119.66;273139;1269;22364;-84
2023/09/23 17:34:55;;;;;;;7.50;4.80;;;;;;;15.07;100.00;99138.66;273173;1269;22428;-84
2023/09/23 17:41:19;;;;;;;9.30;5.90;;;;;;;15.02;100.00;99151.91;273163;1263;23609;-83
2023/09/23 17:47:21;;;;;;;9.80;5.70;;;;;;;14.95;100.00;99154.07;273140;1269;23091;-84
2023/09/23 17:54:03;;;;;;;8.60;6.40;;;;;;;14.82;100.00;99163.25;273083;1269;22390;-84
2023/09/23 18:00:45;;;;;;;7.30;6.20;;;;;;;14.79;100.00;99178.15;272126;1272;22340;-85
2023/09/23 18:06:48;;;;;;;8.70;6.60;;;;;;;14.80;100.00;99183.57;270463;1270;22555;-83
2023/09/23 18:13:31;;;;;;;10.90;6.90;;;;;;;14.83;100.00;99200.09;271154;1269;22230;-84
2023/09/23 18:19:36;;;;;;;9.40;6.30;;;;;;;14.82;100.00;99216.15;270398;1272;22667;-86
2023/09/23 18:26:13;;;;;;;12.20;6.20;;;;;;;14.82;100.00;99229.78;270717;1272;22582;-83
2023/09/23 18:32:15;;;;;;;9.50;7.40;;;;;;;14.78;100.00;99225.22;271830;1269;22525;-85
2023/09/23 18:38:17;;;;;;;10.70;7.60;;;;;;;14.75;100.00;99231.37;271246;1269;23832;-83
2023/09/23 18:52:02;;;;;;;10.20;7.30;;;;;;;14.68;100.00;99247.30;273756;1269;22190;-83
2023/09/23 18:58:29;;;;;;;11.30;7.50;;;;;;;14.69;100.00;99252.09;272669;1269;22326;-82
2023/09/23 19:05:14;;;;;;;13.50;7.50;;;;;;;14.72;100.00;99256.02;273857;1276;22222;-83
2023/09/23 19:11:56;;;;;;;12.20;7.60;;;;;;;14.72;100.00;99265.54;271798;1269;22951;-84
2023/09/23 19:17:57;;;;;;;10.50;8.30;;;;;;;14.76;100.00;99272.23;271563;1269;22558;-85
2023/09/23 19:24:00;;;;;;;12.40;9.10;;;;;;;14.79;100.00;99271.83;271370;1262;22246;-84
2023/09/23 19:30:03;;;;;;;10.90;8.80;;;;;;;14.75;100.00;99261.99;271827;1261;22477;-85
2023/09/23 19:36:45;;;;;;;9.70;7.30;;;;;;;14.66;100.00;99260.13;273590;1269;22228;-84
2023/09/23 19:43:24;;;;;;;13.60;9.00;;;;;;;14.68;100.00;99264.07;271666;1269;22531;-84
2023/09/23 19:49:39;;;;;;;11.10;8.90;;;;;;;14.68;100.00;99266.11;272592;1269;22228;-84
2023/09/23 19:57:13;;;;;;;11.30;8.60;;;;;;;14.57;100.00;99270.29;273837;1270;23195;-84
2023/09/23 20:03:57;;;;;;;12.20;7.90;;;;;;;14.58;100.00;99268.31;273640;1276;22932;-84
2023/09/23 20:10:47;;;;;;;17.10;8.60;;;;;;;14.59;100.00;99275.63;273635;1273;22832;-84
2023/09/23 20:17:16;;;;;;;12.70;8.80;;;;;;;14.59;100.00;99277.14;273794;1269;22242;-84
2023/09/23 20:31:05;;;;;;;10.80;8.20;;;;;;;14.66;100.00;99274.52;273822;1269;23196;-84
2023/09/23 20:37:51;;;;;;;14.30;9.10;;;;;;;14.70;100.00;99276.65;273609;1275;22200;-84
2023/09/23 20:44:34;;;;;;;13.50;9.30;;;;;;;14.65;100.00;99288.39;273751;1269;22181;-84
2023/09/23 20:51:57;;;;;;;14.10;10.00;;;;;;;14.66;100.00;99280.59;273497;1269;22396;-84
2023/09/23 20:58:26;;;;;;;14.10;10.00;;;;;;;14.72;100.00;99282.16;273810;1276;22167;-84
2023/09/23 21:05:10;;;;;;;15.00;10.50;;;;;;;14.77;100.00;99294.20;273780;1272;22364;-85
2023/09/23 21:11:39;;;;;;;12.90;10.30;;;;;;;14.78;100.00;99308.30;273662;1269;22213;-84
2023/09/23 21:17:43;;;;;;;20.00;12.20;;;;;;;14.79;100.00;99311.21;273560;1269;22244;-84
2023/09/23 21:24:05;;;;;;;18.00;11.30;;;;;;;14.81;100.00;99326.64;273823;1269;22193;-84
2023/09/23 21:30:08;;;;;;;18.20;13.00;;;;;;;14.83;100.00;99336.95;273584;1269;22187;-84
2023/09/23 21:36:51;;;;;;;17.20;13.30;;;;;;;14.85;100.00;99342.94;273812;1269;22207;-84
2023/09/23 21:43:33;;;;;;;25.20;12.60;;;;;;;14.85;100.00;99349.30;273830;1269;22354;-84
2023/09/23 21:49:57;;;;;;;18.70;12.60;;;;;;;14.83;100.00;99352.30;273774;1269;22204;-84
2023/09/23 21:56:00;;;;;;;18.20;13.80;;;;;;;14.81;100.00;99347.42;271669;1269;22533;-84
2023/09/23 22:02:02;;;;;;;25.00;14.50;;;;;;;14.81;100.00;99340.19;270710;1269;22230;-84
2023/09/23 22:08:04;;;;;;;23.30;13.60;;;;;;;14.81;100.00;99338.22;273098;1269;23367;-84
2023/09/23 22:14:26;;;;;;;18.80;13.40;;;;;;;14.79;100.00;99344.04;273772;1273;22873;-84
2023/09/23 22:20:30;;;;;;;24.20;14.90;;;;;;;14.80;100.00;99350.89;273885;1275;22178;-84
2023/09/23 22:27:12;;;;;;;21.70;16.00;;;;;;;14.81;100.00;99355.92;273872;1276;22170;-84
2023/09/23 22:33:59;;;;;;;25.40;14.80;;;;;;;14.86;100.00;99355.84;272921;1272;23197;-84
2023/09/23 22:40:02;;;;;;;20.40;13.70;;;;;;;14.84;100.00;99358.21;272802;1272;22410;-84
2023/09/23 22:46:25;;;;;;;22.90;14.80;;;;;;;14.87;100.00;99364.04;272860;1273;22297;-84
2023/09/23 22:53:17;;;;;;;25.20;16.60;;;;;;;14.90;100.00;99366.16;272960;1274;23452;-84
2023/09/23 22:59:46;;;;;;;24.10;14.70;;;;;;;14.93;100.00;99369.31;270174;1272;22616;-84
2023/09/23 23:05:56;;;;;;;22.50;15.30;;;;;;;14.94;100.00;99372.46;270633;1269;22211;-83
2023/09/23 23:12:26;;;;;;;25.40;15.70;;;;;;;14.94;100.00;99376.31;273458;1266;22237;-84
2023/09/23 23:18:47;;;;;;;24.80;14.90;;;;;;;14.95;100.00;99383.33;273565;1269;22269;-84
2023/09/23 23:25:39;;;;;;;25.50;15.50;;;;;;;14.96;100.00;99391.13;272658;1269;22183;-84
2023/09/23 23:32:22;;;;;;;20.70;14.60;;;;;;;14.97;100.00;99393.02;273344;1269;22195;-84
2023/09/23 23:38:53;;;;;;;26.30;14.60;;;;;;;14.98;100.00;99393.17;273762;1276;22213;-85
2023/09/23 23:44:56;;;;;;;24.60;14.10;;;;;;;14.98;100.00;99395.77;272127;1271;22597;-84
2023/09/23 23:51:54;;;;;;;22.90;15.30;;;;;;;14.98;100.00;99393.25;272399;1269;22310;-84
2023/09/23 23:59:31;;;;;;;20.00;15.10;;;;;;;14.97;100.00;99397.03;271237;1269;258064;-84
